sensor_id;sensor_type;location;lat;lon;timestamp;temperature;humidity
5956;DHT22;3004;48.080;11.600;2023-09-07T00:00:35;11.70;99.90
5956;DHT22;3004;48.080;11.600;2023-09-07T00:03:03;11.60;99.90
5956;DHT22;3004;48.080;11.600;2023-09-07T00:05:30;11.60;99.90
5956;DHT22;3004;48.080;11.600;2023-09-07T00:08:00;11.60;99.90
5956;DHT22;3004;48.080;11.600;2023-09-07T00:10:32;11.50;99.90
5956;DHT22;3004;48.080;11.600;2023-09-07T00:13:03;11.50;99.90
5956;DHT22;3004;48.080;11.600;2023-09-07T00:15:36;11.40;99.90
5956;DHT22;3004;48.080;11.600;2023-09-07T00:18:05;11.30;99.90
5956;DHT22;3004;48.080;11.600;2023-09-07T00:20:33;11.30;99.90
5956;DHT22;3004;48.080;11.600;2023-09-07T00:23:00;11.30;99.90
5956;DHT22;3004;48.080;11.600;2023-09-07T00:25:29;11.30;99.90
5956;DHT22;3004;48.080;11.600;2023-09-07T00:27:58;11.30;99.90
5956;DHT22;3004;48.080;11.600;2023-09-07T00:30:28;11.30;99.90
5956;DHT22;3004;48.080;11.600;2023-09-07T00:33:08;11.20;99.90
5956;DHT22;3004;48.080;11.600;2023-09-07T00:35:38;11.20;99.90
5956;DHT22;3004;48.080;11.600;2023-09-07T00:38:05;11.10;99.90
5956;DHT22;3004;48.080;11.600;2023-09-07T00:40:33;11.10;99.90
5956;DHT22;3004;48.080;11.600;2023-09-07T00:43:06;11.00;99.90
5956;DHT22;3004;48.080;11.600;2023-09-07T00:45:35;11.00;99.90
5956;DHT22;3004;48.080;11.600;2023-09-07T00:48:12;11.00;99.90
5956;DHT22;3004;48.080;11.600;2023-09-07T00:57:41;10.80;99.90
5956;DHT22;3004;48.080;11.600;2023-09-07T01:00:12;10.70;99.90
5956;DHT22;3004;48.080;11.600;2023-09-07T01:02:47;10.70;99.90
5956;DHT22;3004;48.080;11.600;2023-09-07T01:05:17;10.70;99.90
5956;DHT22;3004;48.080;11.600;2023-09-07T01:07:59;10.60;99.90
5956;DHT22;3004;48.080;11.600;2023-09-07T01:10:33;10.60;99.90
5956;DHT22;3004;48.080;11.600;2023-09-07T01:13:03;10.50;99.90
5956;DHT22;3004;48.080;11.600;2023-09-07T01:15:33;10.50;99.90
5956;DHT22;3004;48.080;11.600;2023-09-07T01:18:08;10.40;99.90
5956;DHT22;3004;48.080;11.600;2023-09-07T01:20:41;10.40;99.90
5956;DHT22;3004;48.080;11.600;2023-09-07T01:23:11;10.30;99.90
5956;DHT22;3004;48.080;11.600;2023-09-07T01:25:41;10.30;99.90
5956;DHT22;3004;48.080;11.600;2023-09-07T01:28:16;10.30;99.90
5956;DHT22;3004;48.080;11.600;2023-09-07T01:30:54;10.30;99.90
5956;DHT22;3004;48.080;11.600;2023-09-07T01:33:28;10.30;99.90
5956;DHT22;3004;48.080;11.600;2023-09-07T01:35:57;10.30;99.90
5956;DHT22;3004;48.080;11.600;2023-09-07T01:38:32;10.20;99.90
5956;DHT22;3004;48.080;11.600;2023-09-07T01:41:08;10.10;99.90
5956;DHT22;3004;48.080;11.600;2023-09-07T01:43:39;10.20;99.90
5956;DHT22;3004;48.080;11.600;2023-09-07T01:46:06;10.10;99.90
5956;DHT22;3004;48.080;11.600;2023-09-07T01:48:41;10.20;99.90
5956;DHT22;3004;48.080;11.600;2023-09-07T01:51:14;10.10;99.90
5956;DHT22;3004;48.080;11.600;2023-09-07T01:53:47;10.20;99.90
5956;DHT22;3004;48.080;11.600;2023-09-07T01:56:52;10.10;99.90
5956;DHT22;3004;48.080;11.600;2023-09-07T01:59:33;10.10;99.90
5956;DHT22;3004;48.080;11.600;2023-09-07T02:02:06;10.10;99.90
5956;DHT22;3004;48.080;11.600;2023-09-07T02:04:34;10.10;99.90
5956;DHT22;3004;48.080;11.600;2023-09-07T02:07:01;10.10;99.90
5956;DHT22;3004;48.080;11.600;2023-09-07T02:09:37;10.00;99.90
5956;DHT22;3004;48.080;11.600;2023-09-07T02:12:08;10.00;99.90
5956;DHT22;3004;48.080;11.600;2023-09-07T02:14:41;10.00;99.90
5956;DHT22;3004;48.080;11.600;2023-09-07T02:17:08;9.90;99.90
5956;DHT22;3004;48.080;11.600;2023-09-07T02:19:35;9.80;99.90
5956;DHT22;3004;48.080;11.600;2023-09-07T02:22:10;9.70;99.90
5956;DHT22;3004;48.080;11.600;2023-09-07T02:24:40;9.70;99.90
5956;DHT22;3004;48.080;11.600;2023-09-07T02:27:10;9.60;99.90
5956;DHT22;3004;48.080;11.600;2023-09-07T02:29:37;9.50;99.90
5956;DHT22;3004;48.080;11.600;2023-09-07T02:32:08;9.60;99.90
5956;DHT22;3004;48.080;11.600;2023-09-07T02:34:37;9.60;99.90
5956;DHT22;3004;48.080;11.600;2023-09-07T02:37:07;9.60;99.90
5956;DHT22;3004;48.080;11.600;2023-09-07T02:39:45;9.60;99.90
5956;DHT22;3004;48.080;11.600;2023-09-07T02:42:28;9.60;99.90
5956;DHT22;3004;48.080;11.600;2023-09-07T02:44:58;9.60;99.90
5956;DHT22;3004;48.080;11.600;2023-09-07T02:47:45;9.60;99.90
5956;DHT22;3004;48.080;11.600;2023-09-07T02:50:25;9.60;99.90
5956;DHT22;3004;48.080;11.600;2023-09-07T02:52:57;9.60;99.90
5956;DHT22;3004;48.080;11.600;2023-09-07T02:55:27;9.50;99.90
5956;DHT22;3004;48.080;11.600;2023-09-07T02:57:55;9.60;99.90
5956;DHT22;3004;48.080;11.600;2023-09-07T03:00:33;9.60;99.90
5956;DHT22;3004;48.080;11.600;2023-09-07T03:03:10;9.60;99.90
5956;DHT22;3004;48.080;11.600;2023-09-07T03:05:38;9.60;99.90
5956;DHT22;3004;48.080;11.600;2023-09-07T03:08:12;9.60;99.90
5956;DHT22;3004;48.080;11.600;2023-09-07T03:10:51;9.60;99.90
5956;DHT22;3004;48.080;11.600;2023-09-07T03:13:19;9.50;99.90
5956;DHT22;3004;48.080;11.600;2023-09-07T03:15:53;9.60;99.90
5956;DHT22;3004;48.080;11.600;2023-09-07T03:18:31;9.50;99.90
5956;DHT22;3004;48.080;11.600;2023-09-07T03:21:06;9.50;99.90
5956;DHT22;3004;48.080;11.600;2023-09-07T03:23:41;9.50;99.90
5956;DHT22;3004;48.080;11.600;2023-09-07T03:26:51;9.40;99.90
5956;DHT22;3004;48.080;11.600;2023-09-07T03:29:50;9.30;99.90
5956;DHT22;3004;48.080;11.600;2023-09-07T03:33:07;9.30;99.90
5956;DHT22;3004;48.080;11.600;2023-09-07T03:35:49;9.30;99.90
5956;DHT22;3004;48.080;11.600;2023-09-07T03:38:37;9.20;99.90
5956;DHT22;3004;48.080;11.600;2023-09-07T03:41:22;9.20;99.90
5956;DHT22;3004;48.080;11.600;2023-09-07T03:44:07;9.10;99.90
5956;DHT22;3004;48.080;11.600;2023-09-07T03:51:21;9.10;99.90
5956;DHT22;3004;48.080;11.600;2023-09-07T03:53:58;9.00;99.90
5956;DHT22;3004;48.080;11.600;2023-09-07T04:00:38;9.00;99.90
5956;DHT22;3004;48.080;11.600;2023-09-07T04:06:44;8.90;99.90
5956;DHT22;3004;48.080;11.600;2023-09-07T04:09:59;9.00;99.90
5956;DHT22;3004;48.080;11.600;2023-09-07T04:16:35;8.90;99.90
5956;DHT22;3004;48.080;11.600;2023-09-07T04:19:15;8.90;99.90
5956;DHT22;3004;48.080;11.600;2023-09-07T04:22:28;8.90;99.90
5956;DHT22;3004;48.080;11.600;2023-09-07T04:25:46;8.90;99.90
5956;DHT22;3004;48.080;11.600;2023-09-07T04:56:39;8.80;99.90
5956;DHT22;3004;48.080;11.600;2023-09-07T04:59:12;8.80;99.90
5956;DHT22;3004;48.080;11.600;2023-09-07T05:01:45;8.80;99.90
5956;DHT22;3004;48.080;11.600;2023-09-07T05:04:13;8.80;99.90
5956;DHT22;3004;48.080;11.600;2023-09-07T05:06:43;8.80;99.90
5956;DHT22;3004;48.080;11.600;2023-09-07T05:26:37;9.00;99.90
5956;DHT22;3004;48.080;11.600;2023-09-07T05:32:34;9.10;99.90
5956;DHT22;3004;48.080;11.600;2023-09-07T05:35:11;9.20;99.90
5956;DHT22;3004;48.080;11.600;2023-09-07T05:37:51;9.20;99.90
5956;DHT22;3004;48.080;11.600;2023-09-07T05:47:16;9.30;99.90
5956;DHT22;3004;48.080;11.600;2023-09-07T05:49:45;9.40;99.90
5956;DHT22;3004;48.080;11.600;2023-09-07T05:52:20;9.50;99.90
5956;DHT22;3004;48.080;11.600;2023-09-07T05:55:18;9.80;99.90
5956;DHT22;3004;48.080;11.600;2023-09-07T06:20:33;11.30;99.90
5956;DHT22;3004;48.080;11.600;2023-09-07T06:23:01;11.50;99.90
5956;DHT22;3004;48.080;11.600;2023-09-07T06:25:28;11.70;99.90
5956;DHT22;3004;48.080;11.600;2023-09-07T06:27:55;11.80;99.90
5956;DHT22;3004;48.080;11.600;2023-09-07T06:30:22;11.90;99.90
5956;DHT22;3004;48.080;11.600;2023-09-07T06:32:49;12.10;99.90
5956;DHT22;3004;48.080;11.600;2023-09-07T06:35:17;12.20;99.90
5956;DHT22;3004;48.080;11.600;2023-09-07T06:54:51;13.70;99.90
5956;DHT22;3004;48.080;11.600;2023-09-07T06:57:18;13.90;99.90
5956;DHT22;3004;48.080;11.600;2023-09-07T06:59:45;14.50;99.90
5956;DHT22;3004;48.080;11.600;2023-09-07T07:02:12;15.00;99.90
5956;DHT22;3004;48.080;11.600;2023-09-07T07:04:39;15.40;99.90
5956;DHT22;3004;48.080;11.600;2023-09-07T07:07:06;15.30;99.90
5956;DHT22;3004;48.080;11.600;2023-09-07T07:09:33;15.40;99.90
5956;DHT22;3004;48.080;11.600;2023-09-07T07:12:02;15.60;99.90
5956;DHT22;3004;48.080;11.600;2023-09-07T07:14:32;15.80;99.90
5956;DHT22;3004;48.080;11.600;2023-09-07T07:17:01;16.00;99.90
5956;DHT22;3004;48.080;11.600;2023-09-07T07:19:30;15.80;99.90
5956;DHT22;3004;48.080;11.600;2023-09-07T07:21:58;16.10;99.90
5956;DHT22;3004;48.080;11.600;2023-09-07T07:24:27;16.30;99.90
5956;DHT22;3004;48.080;11.600;2023-09-07T07:26:56;16.30;99.90
5956;DHT22;3004;48.080;11.600;2023-09-07T07:29:24;16.60;99.90
5956;DHT22;3004;48.080;11.600;2023-09-07T07:31:52;16.70;99.90
5956;DHT22;3004;48.080;11.600;2023-09-07T07:34:19;16.70;99.90
5956;DHT22;3004;48.080;11.600;2023-09-07T07:36:49;16.60;99.90
5956;DHT22;3004;48.080;11.600;2023-09-07T07:39:16;16.70;99.90
5956;DHT22;3004;48.080;11.600;2023-09-07T07:41:43;16.90;99.90
5956;DHT22;3004;48.080;11.600;2023-09-07T07:44:11;17.00;99.90
5956;DHT22;3004;48.080;11.600;2023-09-07T07:46:41;17.20;99.90
5956;DHT22;3004;48.080;11.600;2023-09-07T07:49:11;17.30;99.90
5956;DHT22;3004;48.080;11.600;2023-09-07T07:51:38;17.30;99.90
5956;DHT22;3004;48.080;11.600;2023-09-07T07:54:05;17.50;99.90
5956;DHT22;3004;48.080;11.600;2023-09-07T07:59:47;17.50;99.90
5956;DHT22;3004;48.080;11.600;2023-09-07T08:02:17;17.40;99.90
5956;DHT22;3004;48.080;11.600;2023-09-07T08:04:44;17.50;99.90
5956;DHT22;3004;48.080;11.600;2023-09-07T08:07:11;17.40;99.90
5956;DHT22;3004;48.080;11.600;2023-09-07T08:09:38;17.80;99.90
5956;DHT22;3004;48.080;11.600;2023-09-07T08:12:05;18.10;99.90
5956;DHT22;3004;48.080;11.600;2023-09-07T08:14:32;18.30;99.90
5956;DHT22;3004;48.080;11.600;2023-09-07T08:20:24;18.30;99.90
5956;DHT22;3004;48.080;11.600;2023-09-07T08:22:53;18.50;99.90
5956;DHT22;3004;48.080;11.600;2023-09-07T08:25:20;18.50;99.90
5956;DHT22;3004;48.080;11.600;2023-09-07T08:27:47;18.50;99.90
5956;DHT22;3004;48.080;11.600;2023-09-07T08:30:16;19.00;99.90
5956;DHT22;3004;48.080;11.600;2023-09-07T08:32:44;19.00;99.90
5956;DHT22;3004;48.080;11.600;2023-09-07T08:35:11;19.10;99.90
5956;DHT22;3004;48.080;11.600;2023-09-07T08:37:41;19.30;99.90
5956;DHT22;3004;48.080;11.600;2023-09-07T08:40:08;19.40;99.90
5956;DHT22;3004;48.080;11.600;2023-09-07T08:42:37;19.40;99.90
5956;DHT22;3004;48.080;11.600;2023-09-07T08:45:05;19.40;99.90
5956;DHT22;3004;48.080;11.600;2023-09-07T08:47:36;19.30;99.90
5956;DHT22;3004;48.080;11.600;2023-09-07T08:50:05;19.30;99.90
5956;DHT22;3004;48.080;11.600;2023-09-07T08:52:33;19.20;99.90
5956;DHT22;3004;48.080;11.600;2023-09-07T08:55:03;19.50;99.90
5956;DHT22;3004;48.080;11.600;2023-09-07T08:57:34;19.70;99.90
5956;DHT22;3004;48.080;11.600;2023-09-07T09:00:02;19.80;99.90
5956;DHT22;3004;48.080;11.600;2023-09-07T09:02:43;19.90;99.90
5956;DHT22;3004;48.080;11.600;2023-09-07T09:05:17;19.90;99.90
5956;DHT22;3004;48.080;11.600;2023-09-07T09:07:46;19.80;99.90
5956;DHT22;3004;48.080;11.600;2023-09-07T09:10:14;20.10;99.90
5956;DHT22;3004;48.080;11.600;2023-09-07T09:12:47;20.40;99.90
5956;DHT22;3004;48.080;11.600;2023-09-07T09:15:15;20.40;99.90
5956;DHT22;3004;48.080;11.600;2023-09-07T09:17:44;20.50;99.90
5956;DHT22;3004;48.080;11.600;2023-09-07T09:20:21;20.40;99.90
5956;DHT22;3004;48.080;11.600;2023-09-07T09:22:52;20.50;99.90
5956;DHT22;3004;48.080;11.600;2023-09-07T09:25:20;20.40;99.90
5956;DHT22;3004;48.080;11.600;2023-09-07T09:27:49;20.60;99.90
5956;DHT22;3004;48.080;11.600;2023-09-07T09:30:16;21.00;99.90
5956;DHT22;3004;48.080;11.600;2023-09-07T09:32:43;21.20;99.90
5956;DHT22;3004;48.080;11.600;2023-09-07T09:35:16;21.40;99.90
5956;DHT22;3004;48.080;11.600;2023-09-07T09:37:44;21.10;99.90
5956;DHT22;3004;48.080;11.600;2023-09-07T09:40:13;21.30;99.90
5956;DHT22;3004;48.080;11.600;2023-09-07T09:42:42;21.60;99.90
5956;DHT22;3004;48.080;11.600;2023-09-07T09:45:10;21.60;99.90
5956;DHT22;3004;48.080;11.600;2023-09-07T09:47:39;21.60;99.90
5956;DHT22;3004;48.080;11.600;2023-09-07T09:50:09;21.50;99.90
5956;DHT22;3004;48.080;11.600;2023-09-07T09:52:37;21.60;99.90
5956;DHT22;3004;48.080;11.600;2023-09-07T09:55:05;21.40;99.90
5956;DHT22;3004;48.080;11.600;2023-09-07T09:57:34;21.40;99.90
5956;DHT22;3004;48.080;11.600;2023-09-07T10:00:04;21.60;99.90
5956;DHT22;3004;48.080;11.600;2023-09-07T10:02:47;21.80;99.90
5956;DHT22;3004;48.080;11.600;2023-09-07T10:05:16;21.90;99.90
5956;DHT22;3004;48.080;11.600;2023-09-07T10:07:47;22.10;99.90
5956;DHT22;3004;48.080;11.600;2023-09-07T10:10:14;22.20;99.90
5956;DHT22;3004;48.080;11.600;2023-09-07T10:12:42;22.30;99.90
5956;DHT22;3004;48.080;11.600;2023-09-07T10:15:24;22.20;99.90
5956;DHT22;3004;48.080;11.600;2023-09-07T10:18:03;22.00;99.90
5956;DHT22;3004;48.080;11.600;2023-09-07T10:20:46;22.00;99.90
5956;DHT22;3004;48.080;11.600;2023-09-07T10:23:14;22.10;99.90
5956;DHT22;3004;48.080;11.600;2023-09-07T10:25:41;22.20;99.90
5956;DHT22;3004;48.080;11.600;2023-09-07T10:28:21;22.50;99.90
5956;DHT22;3004;48.080;11.600;2023-09-07T10:31:00;22.60;99.90
5956;DHT22;3004;48.080;11.600;2023-09-07T10:33:31;22.70;99.90
5956;DHT22;3004;48.080;11.600;2023-09-07T10:35:58;22.60;99.90
5956;DHT22;3004;48.080;11.600;2023-09-07T10:38:28;22.50;99.90
5956;DHT22;3004;48.080;11.600;2023-09-07T10:40:55;22.40;99.90
5956;DHT22;3004;48.080;11.600;2023-09-07T10:43:25;22.40;99.90
5956;DHT22;3004;48.080;11.600;2023-09-07T10:45:52;22.60;99.90
5956;DHT22;3004;48.080;11.600;2023-09-07T10:48:20;22.70;99.90
5956;DHT22;3004;48.080;11.600;2023-09-07T10:50:53;22.80;99.90
5956;DHT22;3004;48.080;11.600;2023-09-07T10:53:30;22.70;99.90
5956;DHT22;3004;48.080;11.600;2023-09-07T10:55:58;22.80;99.90
5956;DHT22;3004;48.080;11.600;2023-09-07T10:58:27;22.90;99.90
5956;DHT22;3004;48.080;11.600;2023-09-07T11:00:54;22.90;99.90
5956;DHT22;3004;48.080;11.600;2023-09-07T11:03:24;22.80;99.90
5956;DHT22;3004;48.080;11.600;2023-09-07T11:05:55;22.90;99.90
5956;DHT22;3004;48.080;11.600;2023-09-07T11:08:22;23.00;99.90
5956;DHT22;3004;48.080;11.600;2023-09-07T11:10:54;23.20;99.90
5956;DHT22;3004;48.080;11.600;2023-09-07T11:13:25;23.10;99.90
5956;DHT22;3004;48.080;11.600;2023-09-07T11:15:54;23.30;99.90
5956;DHT22;3004;48.080;11.600;2023-09-07T11:18:26;23.40;99.90
5956;DHT22;3004;48.080;11.600;2023-09-07T11:20:53;23.30;99.90
5956;DHT22;3004;48.080;11.600;2023-09-07T11:23:23;23.30;99.90
5956;DHT22;3004;48.080;11.600;2023-09-07T11:25:50;23.40;99.90
5956;DHT22;3004;48.080;11.600;2023-09-07T11:28:18;23.40;99.90
5956;DHT22;3004;48.080;11.600;2023-09-07T11:30:51;23.40;99.90
5956;DHT22;3004;48.080;11.600;2023-09-07T11:33:20;23.40;99.90
5956;DHT22;3004;48.080;11.600;2023-09-07T11:35:49;23.70;99.90
5956;DHT22;3004;48.080;11.600;2023-09-07T11:38:17;23.60;99.90
5956;DHT22;3004;48.080;11.600;2023-09-07T11:40:44;23.70;99.90
5956;DHT22;3004;48.080;11.600;2023-09-07T11:43:12;23.90;99.90
5956;DHT22;3004;48.080;11.600;2023-09-07T11:45:39;23.60;99.90
5956;DHT22;3004;48.080;11.600;2023-09-07T11:48:07;23.80;99.90
5956;DHT22;3004;48.080;11.600;2023-09-07T11:50:35;24.00;99.90
5956;DHT22;3004;48.080;11.600;2023-09-07T11:53:04;24.10;99.90
5956;DHT22;3004;48.080;11.600;2023-09-07T11:55:32;24.10;99.90
5956;DHT22;3004;48.080;11.600;2023-09-07T11:58:00;24.00;99.90
5956;DHT22;3004;48.080;11.600;2023-09-07T12:00:27;24.00;99.90
5956;DHT22;3004;48.080;11.600;2023-09-07T12:02:56;24.00;99.90
5956;DHT22;3004;48.080;11.600;2023-09-07T12:05:25;24.30;99.90
5956;DHT22;3004;48.080;11.600;2023-09-07T12:07:52;24.20;99.90
5956;DHT22;3004;48.080;11.600;2023-09-07T12:10:23;24.30;99.90
5956;DHT22;3004;48.080;11.600;2023-09-07T12:12:56;24.20;99.90
5956;DHT22;3004;48.080;11.600;2023-09-07T12:15:23;24.10;99.90
5956;DHT22;3004;48.080;11.600;2023-09-07T12:17:52;24.20;99.90
5956;DHT22;3004;48.080;11.600;2023-09-07T12:20:21;24.30;99.90
5956;DHT22;3004;48.080;11.600;2023-09-07T12:22:48;24.30;99.90
5956;DHT22;3004;48.080;11.600;2023-09-07T12:25:20;24.30;99.90
5956;DHT22;3004;48.080;11.600;2023-09-07T12:27:48;24.30;99.90
5956;DHT22;3004;48.080;11.600;2023-09-07T12:30:16;24.20;99.90
5956;DHT22;3004;48.080;11.600;2023-09-07T12:32:44;24.30;99.90
5956;DHT22;3004;48.080;11.600;2023-09-07T12:35:13;24.40;99.90
5956;DHT22;3004;48.080;11.600;2023-09-07T12:37:40;24.50;99.90
5956;DHT22;3004;48.080;11.600;2023-09-07T12:40:09;24.60;99.90
5956;DHT22;3004;48.080;11.600;2023-09-07T12:42:42;24.50;99.90
5956;DHT22;3004;48.080;11.600;2023-09-07T12:45:11;24.50;99.90
5956;DHT22;3004;48.080;11.600;2023-09-07T12:47:42;24.40;99.90
5956;DHT22;3004;48.080;11.600;2023-09-07T12:50:09;24.60;99.90
5956;DHT22;3004;48.080;11.600;2023-09-07T12:52:40;24.90;99.90
5956;DHT22;3004;48.080;11.600;2023-09-07T12:55:07;25.00;99.90
5956;DHT22;3004;48.080;11.600;2023-09-07T12:57:34;25.10;99.90
5956;DHT22;3004;48.080;11.600;2023-09-07T13:00:02;25.10;99.90
5956;DHT22;3004;48.080;11.600;2023-09-07T13:02:36;25.20;99.90
5956;DHT22;3004;48.080;11.600;2023-09-07T13:05:03;25.20;99.90
5956;DHT22;3004;48.080;11.600;2023-09-07T13:07:31;25.00;99.90
5956;DHT22;3004;48.080;11.600;2023-09-07T13:09:59;25.00;99.90
5956;DHT22;3004;48.080;11.600;2023-09-07T13:13:14;25.00;99.90
5956;DHT22;3004;48.080;11.600;2023-09-07T13:16:24;25.10;99.90
5956;DHT22;3004;48.080;11.600;2023-09-07T13:19:01;25.20;99.90
5956;DHT22;3004;48.080;11.600;2023-09-07T13:21:54;25.20;99.90
5956;DHT22;3004;48.080;11.600;2023-09-07T13:24:27;25.40;99.90
5956;DHT22;3004;48.080;11.600;2023-09-07T13:27:00;25.40;99.90
5956;DHT22;3004;48.080;11.600;2023-09-07T13:29:28;25.40;99.90
5956;DHT22;3004;48.080;11.600;2023-09-07T13:31:55;25.20;99.90
5956;DHT22;3004;48.080;11.600;2023-09-07T13:34:25;25.20;99.90
5956;DHT22;3004;48.080;11.600;2023-09-07T13:36:52;25.20;99.90
5956;DHT22;3004;48.080;11.600;2023-09-07T13:39:19;25.40;99.90
5956;DHT22;3004;48.080;11.600;2023-09-07T13:41:46;25.50;99.90
5956;DHT22;3004;48.080;11.600;2023-09-07T13:44:16;25.40;99.90
5956;DHT22;3004;48.080;11.600;2023-09-07T13:46:43;25.30;99.90
5956;DHT22;3004;48.080;11.600;2023-09-07T13:49:11;25.40;99.90
5956;DHT22;3004;48.080;11.600;2023-09-07T13:51:40;25.40;99.90
5956;DHT22;3004;48.080;11.600;2023-09-07T13:54:07;25.40;99.90
5956;DHT22;3004;48.080;11.600;2023-09-07T13:56:37;25.20;99.90
5956;DHT22;3004;48.080;11.600;2023-09-07T13:59:04;25.30;99.90
5956;DHT22;3004;48.080;11.600;2023-09-07T14:01:31;25.20;99.90
5956;DHT22;3004;48.080;11.600;2023-09-07T14:03:59;25.10;99.90
5956;DHT22;3004;48.080;11.600;2023-09-07T14:06:31;24.90;99.90
5956;DHT22;3004;48.080;11.600;2023-09-07T14:09:00;25.10;99.90
5956;DHT22;3004;48.080;11.600;2023-09-07T14:11:32;25.30;99.90
5956;DHT22;3004;48.080;11.600;2023-09-07T14:13:59;25.40;99.90
5956;DHT22;3004;48.080;11.600;2023-09-07T14:16:28;25.40;99.90
5956;DHT22;3004;48.080;11.600;2023-09-07T14:18:55;25.40;99.90
5956;DHT22;3004;48.080;11.600;2023-09-07T14:21:24;25.20;99.90
5956;DHT22;3004;48.080;11.600;2023-09-07T14:24:03;25.30;99.90
5956;DHT22;3004;48.080;11.600;2023-09-07T14:26:30;25.20;99.90
5956;DHT22;3004;48.080;11.600;2023-09-07T14:28:57;25.20;99.90
5956;DHT22;3004;48.080;11.600;2023-09-07T14:31:24;25.10;99.90
5956;DHT22;3004;48.080;11.600;2023-09-07T14:33:51;25.00;99.90
5956;DHT22;3004;48.080;11.600;2023-09-07T14:36:18;25.20;99.90
5956;DHT22;3004;48.080;11.600;2023-09-07T14:38:45;25.20;99.90
5956;DHT22;3004;48.080;11.600;2023-09-07T14:41:14;25.20;99.90
5956;DHT22;3004;48.080;11.600;2023-09-07T14:43:44;25.10;99.90
5956;DHT22;3004;48.080;11.600;2023-09-07T14:46:11;25.20;99.90
5956;DHT22;3004;48.080;11.600;2023-09-07T14:48:39;25.30;99.90
5956;DHT22;3004;48.080;11.600;2023-09-07T14:51:06;25.30;99.90
5956;DHT22;3004;48.080;11.600;2023-09-07T14:53:35;25.20;99.90
5956;DHT22;3004;48.080;11.600;2023-09-07T14:56:02;25.10;99.90
5956;DHT22;3004;48.080;11.600;2023-09-07T14:58:31;25.00;99.90
5956;DHT22;3004;48.080;11.600;2023-09-07T15:01:01;25.00;99.90
5956;DHT22;3004;48.080;11.600;2023-09-07T15:03:29;25.00;99.90
5956;DHT22;3004;48.080;11.600;2023-09-07T15:05:56;25.00;99.90
5956;DHT22;3004;48.080;11.600;2023-09-07T15:08:23;24.90;99.90
5956;DHT22;3004;48.080;11.600;2023-09-07T15:10:51;24.90;99.90
5956;DHT22;3004;48.080;11.600;2023-09-07T15:13:18;24.80;99.90
5956;DHT22;3004;48.080;11.600;2023-09-07T15:15:48;24.80;99.90
5956;DHT22;3004;48.080;11.600;2023-09-07T15:18:15;24.70;99.90
5956;DHT22;3004;48.080;11.600;2023-09-07T15:20:42;24.80;99.90
5956;DHT22;3004;48.080;11.600;2023-09-07T15:23:09;24.80;99.90
5956;DHT22;3004;48.080;11.600;2023-09-07T15:25:36;24.60;99.90
5956;DHT22;3004;48.080;11.600;2023-09-07T15:28:03;24.50;99.90
5956;DHT22;3004;48.080;11.600;2023-09-07T15:30:36;24.50;99.90
5956;DHT22;3004;48.080;11.600;2023-09-07T15:33:07;24.50;99.90
5956;DHT22;3004;48.080;11.600;2023-09-07T15:35:37;24.50;99.90
5956;DHT22;3004;48.080;11.600;2023-09-07T15:38:04;24.50;99.90
5956;DHT22;3004;48.080;11.600;2023-09-07T15:40:32;24.40;99.90
5956;DHT22;3004;48.080;11.600;2023-09-07T15:42:59;24.40;99.90
5956;DHT22;3004;48.080;11.600;2023-09-07T15:45:25;24.40;99.90
5956;DHT22;3004;48.080;11.600;2023-09-07T15:47:54;24.30;99.90
5956;DHT22;3004;48.080;11.600;2023-09-07T15:50:23;24.30;99.90
5956;DHT22;3004;48.080;11.600;2023-09-07T15:52:50;24.30;99.90
5956;DHT22;3004;48.080;11.600;2023-09-07T15:55:17;24.20;99.90
5956;DHT22;3004;48.080;11.600;2023-09-07T15:57:46;24.10;99.90
5956;DHT22;3004;48.080;11.600;2023-09-07T16:00:14;24.10;99.90
5956;DHT22;3004;48.080;11.600;2023-09-07T16:02:42;24.10;99.90
5956;DHT22;3004;48.080;11.600;2023-09-07T16:05:09;24.00;99.90
5956;DHT22;3004;48.080;11.600;2023-09-07T16:07:38;24.00;99.90
5956;DHT22;3004;48.080;11.600;2023-09-07T16:10:07;24.00;99.90
5956;DHT22;3004;48.080;11.600;2023-09-07T16:12:37;23.90;99.90
5956;DHT22;3004;48.080;11.600;2023-09-07T16:15:05;23.90;99.90
5956;DHT22;3004;48.080;11.600;2023-09-07T16:17:32;23.80;99.90
5956;DHT22;3004;48.080;11.600;2023-09-07T16:19:59;23.80;99.90
5956;DHT22;3004;48.080;11.600;2023-09-07T16:22:26;23.80;99.90
5956;DHT22;3004;48.080;11.600;2023-09-07T16:24:57;23.80;99.90
5956;DHT22;3004;48.080;11.600;2023-09-07T16:27:24;23.80;99.90
5956;DHT22;3004;48.080;11.600;2023-09-07T16:29:51;23.70;99.90
5956;DHT22;3004;48.080;11.600;2023-09-07T16:32:18;23.70;99.90
5956;DHT22;3004;48.080;11.600;2023-09-07T16:34:48;23.70;99.90
5956;DHT22;3004;48.080;11.600;2023-09-07T16:37:18;23.70;99.90
5956;DHT22;3004;48.080;11.600;2023-09-07T16:39:50;23.60;99.90
5956;DHT22;3004;48.080;11.600;2023-09-07T16:42:21;23.50;99.90
5956;DHT22;3004;48.080;11.600;2023-09-07T16:44:50;23.40;99.90
5956;DHT22;3004;48.080;11.600;2023-09-07T16:47:20;23.50;99.90
5956;DHT22;3004;48.080;11.600;2023-09-07T16:49:48;23.40;99.90
5956;DHT22;3004;48.080;11.600;2023-09-07T16:52:15;23.40;99.90
5956;DHT22;3004;48.080;11.600;2023-09-07T16:54:42;23.30;99.90
5956;DHT22;3004;48.080;11.600;2023-09-07T16:57:10;23.30;99.90
5956;DHT22;3004;48.080;11.600;2023-09-07T16:59:38;23.30;99.90
5956;DHT22;3004;48.080;11.600;2023-09-07T17:02:06;23.20;99.90
5956;DHT22;3004;48.080;11.600;2023-09-07T17:04:34;23.10;99.90
5956;DHT22;3004;48.080;11.600;2023-09-07T17:07:03;23.00;99.90
5956;DHT22;3004;48.080;11.600;2023-09-07T17:09:31;22.90;99.90
5956;DHT22;3004;48.080;11.600;2023-09-07T17:11:59;22.90;99.90
5956;DHT22;3004;48.080;11.600;2023-09-07T17:14:32;22.90;99.90
5956;DHT22;3004;48.080;11.600;2023-09-07T17:17:05;22.40;99.90
5956;DHT22;3004;48.080;11.600;2023-09-07T17:19:33;22.10;99.90
5956;DHT22;3004;48.080;11.600;2023-09-07T17:22:00;21.90;99.90
5956;DHT22;3004;48.080;11.600;2023-09-07T17:24:27;21.60;99.90
5956;DHT22;3004;48.080;11.600;2023-09-07T17:26:55;21.50;99.90
5956;DHT22;3004;48.080;11.600;2023-09-07T17:29:23;21.30;99.90
5956;DHT22;3004;48.080;11.600;2023-09-07T17:32:12;21.20;99.90
5956;DHT22;3004;48.080;11.600;2023-09-07T17:35:04;21.10;99.90
5956;DHT22;3004;48.080;11.600;2023-09-07T17:41:02;20.90;99.90
5956;DHT22;3004;48.080;11.600;2023-09-07T17:51:38;20.20;99.90
5956;DHT22;3004;48.080;11.600;2023-09-07T17:54:05;20.10;99.90
5956;DHT22;3004;48.080;11.600;2023-09-07T17:56:32;20.00;99.90
5956;DHT22;3004;48.080;11.600;2023-09-07T17:58:59;19.90;99.90
5956;DHT22;3004;48.080;11.600;2023-09-07T18:01:29;19.70;99.90
5956;DHT22;3004;48.080;11.600;2023-09-07T18:03:57;19.70;99.90
5956;DHT22;3004;48.080;11.600;2023-09-07T18:06:24;19.50;99.90
5956;DHT22;3004;48.080;11.600;2023-09-07T18:08:54;19.40;99.90
5956;DHT22;3004;48.080;11.600;2023-09-07T18:11:21;19.30;99.90
5956;DHT22;3004;48.080;11.600;2023-09-07T18:13:48;19.10;99.90
5956;DHT22;3004;48.080;11.600;2023-09-07T18:16:15;19.10;99.90
5956;DHT22;3004;48.080;11.600;2023-09-07T18:18:45;19.00;99.90
5956;DHT22;3004;48.080;11.600;2023-09-07T18:21:12;18.90;99.90
5956;DHT22;3004;48.080;11.600;2023-09-07T18:23:39;18.80;99.90
5956;DHT22;3004;48.080;11.600;2023-09-07T18:26:11;18.70;99.90
5956;DHT22;3004;48.080;11.600;2023-09-07T18:28:38;18.50;99.90